createdAt,value
2019-05-26T00:00:57.296Z,44.55
2019-05-26T00:06:01.108Z,45.25
2019-05-26T00:11:04.891Z,45.25
2019-05-26T00:16:08.695Z,44.68
2019-05-26T00:21:12.551Z,45.05
2019-05-26T00:26:16.318Z,44.89
2019-05-26T00:31:20.111Z,44.82
2019-05-26T00:36:23.899Z,44.82
2019-05-26T00:41:27.691Z,45.31
2019-05-26T00:46:32.880Z,45.35
2019-05-26T00:51:36.672Z,45.03
2019-05-26T00:56:40.496Z,45.27
2019-05-26T01:01:44.280Z,45.33
2019-05-26T01:06:48.083Z,45.33
2019-05-26T01:11:51.847Z,45.66
2019-05-26T01:16:56.270Z,45.57
2019-05-26T01:22:00.129Z,45.84
2019-05-26T01:27:03.877Z,46.04
2019-05-26T01:32:07.775Z,45.80
2019-05-26T01:37:11.629Z,45.63
2019-05-26T01:42:15.651Z,46.10
2019-05-26T01:47:19.413Z,45.54
2019-05-26T01:52:23.188Z,45.86
2019-05-26T01:57:26.947Z,45.86
2019-05-26T02:02:30.768Z,45.83
2019-05-26T02:07:34.570Z,46.23
2019-05-26T02:12:38.371Z,45.90
2019-05-26T02:17:42.154Z,45.75
2019-05-26T02:22:45.925Z,45.75
2019-05-26T02:27:49.725Z,46.40
2019-05-26T02:32:53.549Z,46.24
2019-05-26T02:37:57.412Z,46.19
2019-05-26T02:43:01.189Z,46.05
2019-05-26T02:48:05.097Z,46.28
2019-05-26T02:53:08.908Z,46.28
2019-05-26T02:58:12.712Z,46.47
2019-05-26T03:03:17.113Z,46.45
2019-05-26T03:08:20.929Z,46.58
2019-05-26T03:13:24.731Z,46.51
2019-05-26T03:18:29.828Z,46.44
2019-05-26T03:23:33.640Z,47.02
2019-05-26T03:28:37.551Z,47.11
2019-05-26T03:33:41.371Z,47.21
2019-05-26T03:38:45.143Z,46.93
2019-05-26T03:43:48.914Z,47.31
2019-05-26T03:48:52.840Z,47.31
2019-05-26T03:53:56.778Z,47.07
2019-05-26T03:59:00.680Z,47.21
2019-05-26T04:04:04.620Z,47.21
2019-05-26T04:09:08.823Z,47.21
2019-05-26T04:14:12.579Z,47.76
2019-05-26T04:19:16.390Z,47.76
2019-05-26T04:24:20.347Z,47.57
2019-05-26T04:29:24.138Z,47.70
2019-05-26T04:34:27.949Z,47.85
2019-05-26T04:39:31.784Z,47.73
2019-05-26T04:44:35.564Z,47.58
2019-05-26T04:49:39.370Z,48.40
2019-05-26T04:54:43.160Z,47.96
2019-05-26T04:59:46.948Z,48.15
2019-05-26T05:04:50.751Z,48.15
2019-05-26T05:09:54.560Z,48.18
2019-05-26T05:14:58.583Z,48.21
2019-05-26T05:20:02.702Z,48.98
2019-05-26T05:25:13.893Z,48.98
2019-05-26T05:30:12.415Z,48.36
2019-05-26T05:35:16.209Z,48.63
2019-05-26T05:40:21.705Z,48.64
2019-05-26T05:45:25.477Z,48.53
2019-05-26T05:50:29.418Z,48.81
2019-05-26T05:55:33.236Z,48.34
2019-05-26T06:00:37.033Z,48.31
2019-05-26T06:05:40.823Z,48.55
2019-05-26T06:10:44.655Z,48.31
2019-05-26T06:15:48.410Z,48.57
2019-05-26T06:20:52.304Z,48.71
2019-05-26T06:25:56.106Z,48.68
2019-05-26T06:30:59.896Z,48.68
2019-05-26T06:36:03.716Z,48.57
2019-05-26T06:41:07.490Z,48.80
2019-05-26T06:46:11.372Z,48.80
2019-05-26T06:51:15.224Z,49.11
2019-05-26T06:56:19.017Z,49.11
2019-05-26T07:01:22.831Z,48.90
2019-05-26T07:06:26.616Z,49.00
2019-05-26T07:11:30.407Z,49.00
2019-05-26T07:16:38.097Z,43.18
2019-05-26T07:21:39.785Z,43.87
2019-05-26T07:26:43.581Z,43.83
2019-05-26T07:31:47.406Z,43.65
2019-05-26T07:36:51.238Z,43.04
2019-05-26T07:42:09.201Z,42.46
2019-05-26T07:47:00.733Z,42.31
2019-05-26T07:52:13.171Z,42.79
2019-05-26T07:57:17.003Z,43.46
2019-05-26T08:02:20.869Z,43.91
2019-05-26T08:07:24.691Z,45.14
2019-05-26T08:12:30.742Z,44.74
2019-05-26T08:17:34.036Z,43.83
2019-05-26T08:22:37.964Z,42.43
2019-05-26T08:27:41.829Z,43.89
2019-05-26T08:32:45.710Z,44.07
2019-05-26T08:37:49.536Z,40.32
2019-05-26T08:42:53.443Z,40.32
2019-05-26T08:47:57.296Z,41.47
2019-05-26T08:53:01.136Z,42.41
2019-05-26T08:58:05.293Z,42.41
2019-05-26T09:03:09.101Z,42.39
2019-05-26T09:08:12.925Z,43.14
2019-05-26T09:13:16.713Z,42.91
2019-05-26T09:18:20.499Z,43.98
2019-05-26T09:23:24.309Z,42.82
2019-05-26T09:28:28.106Z,39.91
2019-05-26T09:33:31.914Z,39.91
2019-05-26T09:38:35.739Z,40.83
2019-05-26T09:43:39.553Z,42.95
2019-05-26T09:48:43.412Z,41.99
2019-05-26T09:54:00.837Z,41.99
2019-05-26T09:58:52.796Z,42.27
2019-05-26T10:03:56.633Z,43.54
2019-05-26T10:09:00.490Z,43.54
2019-05-26T10:14:04.400Z,40.94
2019-05-26T10:19:08.307Z,41.59
2019-05-26T10:24:12.164Z,40.13
2019-05-26T10:29:15.966Z,41.44
2019-05-26T10:34:19.757Z,41.16
2019-05-26T10:39:23.559Z,40.59
2019-05-26T10:44:27.354Z,40.59
2019-05-26T10:49:31.204Z,40.52
2019-05-26T10:54:35.108Z,40.00
2019-05-26T10:59:38.900Z,40.00
2019-05-26T11:04:42.746Z,39.60
2019-05-26T11:09:46.614Z,39.40
2019-05-26T11:14:50.483Z,39.40
2019-05-26T11:19:54.307Z,39.16
2019-05-26T11:24:58.129Z,39.16
2019-05-26T11:30:01.919Z,38.81
2019-05-26T11:35:08.234Z,38.81
2019-05-26T11:40:12.043Z,38.69
2019-05-26T11:45:15.927Z,38.50
2019-05-26T11:50:19.888Z,38.71
2019-05-26T11:55:23.781Z,38.30
2019-05-26T12:00:27.569Z,38.55
2019-05-26T12:05:31.390Z,38.55
2019-05-26T12:10:35.217Z,39.17
2019-05-26T12:15:39.033Z,39.17
2019-05-26T12:20:42.938Z,39.09
2019-05-26T12:25:46.730Z,39.84
2019-05-26T12:30:50.550Z,39.84
2019-05-26T12:35:54.435Z,39.62
2019-05-26T12:40:58.235Z,39.83
2019-05-26T12:46:02.036Z,40.17
2019-05-26T12:51:05.943Z,40.17
2019-05-26T12:56:09.728Z,40.33
2019-05-26T13:01:13.560Z,39.97
2019-05-26T13:06:17.772Z,40.79
2019-05-26T13:11:22.923Z,40.79
2019-05-26T13:16:26.972Z,40.29
2019-05-26T13:21:31.091Z,40.33
2019-05-26T13:26:34.887Z,40.71
2019-05-26T13:31:38.776Z,40.37
2019-05-26T13:36:42.550Z,40.49
2019-05-26T13:41:46.325Z,40.49
2019-05-26T13:46:50.147Z,40.97
2019-05-26T13:51:53.978Z,41.10
2019-05-26T13:56:57.740Z,41.53
2019-05-26T14:02:01.751Z,41.14
2019-05-26T14:07:05.683Z,40.94
2019-05-26T14:12:09.449Z,41.05
2019-05-26T14:17:13.253Z,41.09
2019-05-26T14:22:17.047Z,41.09
2019-05-26T14:27:20.818Z,41.67
2019-05-26T14:32:24.619Z,41.59
2019-05-26T14:37:28.428Z,41.82
2019-05-26T14:42:32.273Z,41.88
2019-05-26T14:47:36.087Z,41.88
2019-05-26T14:52:39.885Z,41.37
2019-05-26T14:57:43.737Z,41.73
2019-05-26T15:02:47.559Z,41.26
2019-05-26T15:07:51.367Z,41.26
2019-05-26T15:12:55.159Z,42.11
2019-05-26T15:17:58.962Z,41.55
2019-05-26T15:23:02.775Z,41.83
2019-05-26T15:28:06.678Z,42.10
2019-05-26T15:33:10.512Z,42.08
2019-05-26T15:38:14.337Z,42.02
2019-05-26T15:43:18.395Z,42.02
2019-05-26T15:48:22.197Z,41.93
2019-05-26T15:53:26.006Z,41.78
2019-05-26T15:58:29.827Z,41.57
2019-05-26T16:03:33.605Z,41.57
2019-05-26T16:08:37.436Z,41.95
2019-05-26T16:13:41.364Z,41.75
2019-05-26T16:18:45.151Z,41.79
2019-05-26T16:23:48.973Z,41.68
2019-05-26T16:28:52.744Z,41.68
2019-05-26T16:33:56.542Z,42.16
2019-05-26T16:39:00.326Z,41.91
2019-05-26T16:44:04.122Z,41.91
2019-05-26T16:49:07.928Z,42.04
2019-05-26T16:54:11.705Z,42.02
2019-05-26T16:59:15.505Z,41.68
2019-05-26T17:04:19.291Z,42.52
2019-05-26T17:09:23.070Z,41.90
2019-05-26T17:14:27.043Z,42.46
2019-05-26T17:19:30.915Z,42.46
2019-05-26T17:24:34.670Z,42.00
2019-05-26T17:29:38.436Z,42.29
2019-05-26T17:34:42.218Z,42.29
2019-05-26T17:39:45.989Z,41.13
2019-05-26T17:44:49.756Z,41.84
2019-05-26T17:49:53.534Z,41.60
2019-05-26T17:54:57.363Z,41.60
2019-05-26T18:00:01.187Z,41.80
2019-05-26T18:05:05.481Z,41.55
2019-05-26T18:10:09.268Z,41.63
2019-05-26T18:15:13.122Z,41.77
2019-05-26T18:20:16.908Z,41.29
2019-05-26T18:25:20.721Z,41.29
2019-05-26T18:30:24.503Z,41.76
2019-05-26T18:35:28.280Z,41.97
2019-05-26T18:40:32.078Z,41.97
2019-05-26T18:45:35.842Z,41.74
2019-05-26T18:50:39.778Z,41.97
2019-05-26T18:55:43.573Z,41.89
2019-05-26T19:00:47.359Z,41.89
2019-05-26T19:05:51.262Z,41.93
2019-05-26T19:10:55.265Z,42.07
2019-05-26T19:15:59.041Z,42.19
2019-05-26T19:21:02.831Z,41.91
2019-05-26T19:26:06.635Z,42.29
2019-05-26T19:31:10.425Z,42.29
2019-05-26T19:36:14.230Z,42.44
2019-05-26T19:41:18.036Z,42.55
2019-05-26T19:46:21.882Z,42.73
2019-05-26T19:51:25.682Z,42.33
2019-05-26T19:56:29.538Z,42.33
2019-05-26T20:01:33.334Z,42.62
2019-05-26T20:06:37.106Z,42.62
2019-05-26T20:11:40.893Z,42.97
2019-05-26T20:16:44.672Z,42.82
2019-05-26T20:21:48.480Z,42.46
2019-05-26T20:26:52.368Z,42.46
2019-05-26T20:31:56.202Z,43.02
2019-05-26T20:37:00.014Z,42.79
2019-05-26T20:42:03.797Z,42.79
2019-05-26T20:47:07.588Z,42.74
2019-05-26T20:52:11.397Z,42.88
2019-05-26T20:57:15.184Z,42.91
2019-05-26T21:02:18.995Z,42.85
2019-05-26T21:07:22.770Z,43.13
2019-05-26T21:12:26.582Z,43.13
2019-05-26T21:17:30.384Z,43.30
2019-05-26T21:22:34.196Z,43.63
2019-05-26T21:27:37.990Z,43.68
2019-05-26T21:32:41.783Z,43.64
2019-05-26T21:37:45.571Z,43.64
2019-05-26T21:42:49.359Z,43.61
2019-05-26T21:47:53.130Z,43.71
2019-05-26T21:52:56.920Z,43.87
2019-05-26T21:58:00.687Z,43.65
2019-05-26T22:03:04.469Z,43.82
2019-05-26T22:08:08.263Z,43.61
2019-05-26T22:13:12.034Z,43.61
2019-05-26T22:18:15.830Z,43.75
2019-05-26T22:23:19.607Z,44.09
2019-05-26T22:28:23.371Z,44.09
2019-05-26T22:33:27.140Z,44.28
2019-05-26T22:38:30.920Z,44.18
2019-05-26T22:43:34.707Z,44.33
2019-05-26T22:48:38.483Z,44.33
2019-05-26T22:53:42.261Z,44.37
2019-05-26T22:58:46.041Z,44.49
2019-05-26T23:03:49.820Z,44.49
2019-05-26T23:08:53.634Z,44.67
2019-05-26T23:13:57.399Z,44.47
2019-05-26T23:19:01.192Z,44.47
2019-05-26T23:24:04.964Z,44.94
2019-05-26T23:29:08.744Z,44.86
2019-05-26T23:34:12.529Z,44.70
2019-05-26T23:39:16.375Z,45.21
2019-05-26T23:44:20.253Z,44.89
2019-05-26T23:49:24.133Z,44.89
2019-05-26T23:54:27.941Z,45.11
2019-05-26T23:59:31.711Z,45.08
